sensor_id;sensor_type;location;lat;lon;timestamp;P1;durP1;ratioP1;P2;durP2;ratioP2
39502;SDS011;26970;49.900;10.774;2023-05-28T00:00:09;14.10;;;6.93;;
39502;SDS011;26970;49.900;10.774;2023-05-28T00:02:35;12.70;;;5.97;;
39502;SDS011;26970;49.900;10.774;2023-05-28T00:05:02;11.88;;;5.22;;
39502;SDS011;26970;49.900;10.774;2023-05-28T00:07:28;10.70;;;4.60;;
39502;SDS011;26970;49.900;10.774;2023-05-28T00:09:55;9.25;;;4.32;;
39502;SDS011;26970;49.900;10.774;2023-05-28T00:12:21;9.05;;;4.28;;
39502;SDS011;26970;49.900;10.774;2023-05-28T00:14:47;8.05;;;3.75;;
39502;SDS011;26970;49.900;10.774;2023-05-28T00:17:13;10.55;;;3.72;;
39502;SDS011;26970;49.900;10.774;2023-05-28T00:19:40;10.02;;;4.25;;
39502;SDS011;26970;49.900;10.774;2023-05-28T00:22:06;13.20;;;4.70;;
39502;SDS011;26970;49.900;10.774;2023-05-28T00:24:32;7.20;;;3.78;;
39502;SDS011;26970;49.900;10.774;2023-05-28T00:26:58;8.88;;;4.20;;
39502;SDS011;26970;49.900;10.774;2023-05-28T00:29:24;10.65;;;4.38;;
39502;SDS011;26970;49.900;10.774;2023-05-28T00:31:52;11.70;;;3.95;;
39502;SDS011;26970;49.900;10.774;2023-05-28T00:34:20;8.95;;;3.67;;
39502;SDS011;26970;49.900;10.774;2023-05-28T00:36:49;7.93;;;4.05;;
39502;SDS011;26970;49.900;10.774;2023-05-28T00:39:16;11.68;;;4.40;;
39502;SDS011;26970;49.900;10.774;2023-05-28T00:41:43;10.02;;;4.22;;
39502;SDS011;26970;49.900;10.774;2023-05-28T00:44:09;11.20;;;3.90;;
39502;SDS011;26970;49.900;10.774;2023-05-28T00:46:35;13.05;;;5.72;;
39502;SDS011;26970;49.900;10.774;2023-05-28T00:49:01;9.02;;;4.60;;
39502;SDS011;26970;49.900;10.774;2023-05-28T00:51:27;10.43;;;4.68;;
39502;SDS011;26970;49.900;10.774;2023-05-28T00:53:54;13.32;;;4.13;;
39502;SDS011;26970;49.900;10.774;2023-05-28T00:56:20;11.73;;;4.53;;
39502;SDS011;26970;49.900;10.774;2023-05-28T00:58:49;10.43;;;4.55;;
39502;SDS011;26970;49.900;10.774;2023-05-28T01:01:15;10.63;;;4.00;;
39502;SDS011;26970;49.900;10.774;2023-05-28T01:03:41;9.50;;;4.65;;
39502;SDS011;26970;49.900;10.774;2023-05-28T01:06:08;7.32;;;4.10;;
39502;SDS011;26970;49.900;10.774;2023-05-28T01:08:39;7.80;;;4.10;;
39502;SDS011;26970;49.900;10.774;2023-05-28T01:11:06;10.48;;;4.53;;
39502;SDS011;26970;49.900;10.774;2023-05-28T01:13:35;13.55;;;5.10;;
39502;SDS011;26970;49.900;10.774;2023-05-28T01:16:03;12.63;;;4.70;;
39502;SDS011;26970;49.900;10.774;2023-05-28T01:18:29;11.98;;;4.93;;
39502;SDS011;26970;49.900;10.774;2023-05-28T01:20:56;10.88;;;4.05;;
39502;SDS011;26970;49.900;10.774;2023-05-28T01:23:27;15.23;;;4.60;;
39502;SDS011;26970;49.900;10.774;2023-05-28T01:25:53;8.77;;;4.30;;
39502;SDS011;26970;49.900;10.774;2023-05-28T01:28:24;11.05;;;4.15;;
39502;SDS011;26970;49.900;10.774;2023-05-28T01:30:50;10.60;;;4.70;;
39502;SDS011;26970;49.900;10.774;2023-05-28T01:33:17;10.23;;;4.35;;
39502;SDS011;26970;49.900;10.774;2023-05-28T01:35:46;8.68;;;4.55;;
39502;SDS011;26970;49.900;10.774;2023-05-28T01:38:12;13.02;;;4.53;;
39502;SDS011;26970;49.900;10.774;2023-05-28T01:40:40;10.43;;;4.32;;
39502;SDS011;26970;49.900;10.774;2023-05-28T01:43:08;9.52;;;4.00;;
39502;SDS011;26970;49.900;10.774;2023-05-28T01:45:34;12.23;;;4.93;;
39502;SDS011;26970;49.900;10.774;2023-05-28T01:48:00;11.45;;;4.45;;
39502;SDS011;26970;49.900;10.774;2023-05-28T01:50:26;12.52;;;4.45;;
39502;SDS011;26970;49.900;10.774;2023-05-28T01:52:53;12.68;;;5.25;;
39502;SDS011;26970;49.900;10.774;2023-05-28T01:55:19;9.13;;;4.38;;
39502;SDS011;26970;49.900;10.774;2023-05-28T01:57:45;10.43;;;4.30;;
39502;SDS011;26970;49.900;10.774;2023-05-28T02:00:11;8.15;;;4.22;;
39502;SDS011;26970;49.900;10.774;2023-05-28T02:02:37;8.63;;;4.25;;
39502;SDS011;26970;49.900;10.774;2023-05-28T02:05:02;12.38;;;4.78;;
39502;SDS011;26970;49.900;10.774;2023-05-28T02:07:29;7.85;;;4.18;;
39502;SDS011;26970;49.900;10.774;2023-05-28T02:09:54;9.73;;;4.50;;
39502;SDS011;26970;49.900;10.774;2023-05-28T02:12:20;9.88;;;4.55;;
39502;SDS011;26970;49.900;10.774;2023-05-28T02:14:46;8.30;;;4.20;;
39502;SDS011;26970;49.900;10.774;2023-05-28T02:17:12;12.18;;;4.72;;
39502;SDS011;26970;49.900;10.774;2023-05-28T02:19:37;13.05;;;4.47;;
39502;SDS011;26970;49.900;10.774;2023-05-28T02:22:03;11.32;;;4.43;;
39502;SDS011;26970;49.900;10.774;2023-05-28T02:24:35;9.40;;;4.18;;
39502;SDS011;26970;49.900;10.774;2023-05-28T02:27:01;9.60;;;4.53;;
39502;SDS011;26970;49.900;10.774;2023-05-28T02:29:28;11.35;;;4.80;;
39502;SDS011;26970;49.900;10.774;2023-05-28T02:31:54;7.95;;;4.28;;
39502;SDS011;26970;49.900;10.774;2023-05-28T02:34:20;12.73;;;4.75;;
39502;SDS011;26970;49.900;10.774;2023-05-28T02:36:46;11.55;;;4.38;;
39502;SDS011;26970;49.900;10.774;2023-05-28T02:39:11;12.90;;;4.80;;
39502;SDS011;26970;49.900;10.774;2023-05-28T02:41:38;12.02;;;5.55;;
39502;SDS011;26970;49.900;10.774;2023-05-28T02:44:03;10.52;;;4.50;;
39502;SDS011;26970;49.900;10.774;2023-05-28T02:46:29;9.75;;;4.70;;
39502;SDS011;26970;49.900;10.774;2023-05-28T02:48:55;21.02;;;5.45;;
39502;SDS011;26970;49.900;10.774;2023-05-28T02:51:21;8.10;;;4.25;;
39502;SDS011;26970;49.900;10.774;2023-05-28T02:53:46;12.00;;;5.32;;
39502;SDS011;26970;49.900;10.774;2023-05-28T02:56:12;13.27;;;4.75;;
39502;SDS011;26970;49.900;10.774;2023-05-28T02:58:37;11.30;;;4.25;;
39502;SDS011;26970;49.900;10.774;2023-05-28T03:01:04;11.38;;;4.97;;
39502;SDS011;26970;49.900;10.774;2023-05-28T03:03:31;12.50;;;5.22;;
39502;SDS011;26970;49.900;10.774;2023-05-28T03:05:56;10.82;;;4.45;;
39502;SDS011;26970;49.900;10.774;2023-05-28T03:08:22;11.40;;;4.57;;
39502;SDS011;26970;49.900;10.774;2023-05-28T03:10:48;12.88;;;4.55;;
39502;SDS011;26970;49.900;10.774;2023-05-28T03:13:13;11.90;;;5.03;;
39502;SDS011;26970;49.900;10.774;2023-05-28T03:15:39;9.80;;;4.72;;
39502;SDS011;26970;49.900;10.774;2023-05-28T03:18:05;9.77;;;4.40;;
39502;SDS011;26970;49.900;10.774;2023-05-28T03:20:31;8.65;;;4.30;;
39502;SDS011;26970;49.900;10.774;2023-05-28T03:22:56;12.52;;;4.40;;
39502;SDS011;26970;49.900;10.774;2023-05-28T03:25:22;9.32;;;4.68;;
39502;SDS011;26970;49.900;10.774;2023-05-28T03:27:52;10.65;;;4.80;;
39502;SDS011;26970;49.900;10.774;2023-05-28T03:30:18;10.63;;;5.20;;
39502;SDS011;26970;49.900;10.774;2023-05-28T03:32:44;7.65;;;4.32;;
39502;SDS011;26970;49.900;10.774;2023-05-28T03:35:09;10.00;;;5.07;;
39502;SDS011;26970;49.900;10.774;2023-05-28T03:37:35;11.80;;;4.93;;
39502;SDS011;26970;49.900;10.774;2023-05-28T03:40:01;7.68;;;4.18;;
39502;SDS011;26970;49.900;10.774;2023-05-28T03:42:29;9.88;;;4.50;;
39502;SDS011;26970;49.900;10.774;2023-05-28T03:44:55;13.65;;;5.65;;
39502;SDS011;26970;49.900;10.774;2023-05-28T03:47:20;10.40;;;4.43;;
39502;SDS011;26970;49.900;10.774;2023-05-28T03:49:46;15.02;;;5.25;;
39502;SDS011;26970;49.900;10.774;2023-05-28T03:52:12;9.60;;;4.63;;
39502;SDS011;26970;49.900;10.774;2023-05-28T03:54:38;8.88;;;4.43;;
39502;SDS011;26970;49.900;10.774;2023-05-28T03:57:03;10.82;;;4.35;;
39502;SDS011;26970;49.900;10.774;2023-05-28T03:59:29;10.40;;;4.90;;
39502;SDS011;26970;49.900;10.774;2023-05-28T04:01:54;11.00;;;4.60;;
39502;SDS011;26970;49.900;10.774;2023-05-28T04:04:20;11.00;;;4.55;;
39502;SDS011;26970;49.900;10.774;2023-05-28T04:06:46;8.07;;;3.70;;
39502;SDS011;26970;49.900;10.774;2023-05-28T04:09:11;9.85;;;4.40;;
39502;SDS011;26970;49.900;10.774;2023-05-28T04:11:37;10.70;;;4.53;;
39502;SDS011;26970;49.900;10.774;2023-05-28T04:14:03;8.30;;;3.97;;
39502;SDS011;26970;49.900;10.774;2023-05-28T04:16:30;10.52;;;4.32;;
39502;SDS011;26970;49.900;10.774;2023-05-28T04:18:56;12.93;;;4.30;;
39502;SDS011;26970;49.900;10.774;2023-05-28T04:21:22;8.52;;;4.60;;
39502;SDS011;26970;49.900;10.774;2023-05-28T04:23:48;10.82;;;4.82;;
39502;SDS011;26970;49.900;10.774;2023-05-28T04:26:14;9.98;;;4.05;;
39502;SDS011;26970;49.900;10.774;2023-05-28T04:28:41;13.18;;;4.38;;
39502;SDS011;26970;49.900;10.774;2023-05-28T04:31:07;9.32;;;4.68;;
39502;SDS011;26970;49.900;10.774;2023-05-28T04:33:32;9.35;;;4.88;;
39502;SDS011;26970;49.900;10.774;2023-05-28T04:35:58;9.30;;;3.83;;
39502;SDS011;26970;49.900;10.774;2023-05-28T04:38:26;9.65;;;4.03;;
39502;SDS011;26970;49.900;10.774;2023-05-28T04:40:58;11.65;;;4.30;;
39502;SDS011;26970;49.900;10.774;2023-05-28T04:43:25;10.20;;;4.53;;
39502;SDS011;26970;49.900;10.774;2023-05-28T04:45:51;10.45;;;4.35;;
39502;SDS011;26970;49.900;10.774;2023-05-28T04:48:18;11.02;;;4.47;;
39502;SDS011;26970;49.900;10.774;2023-05-28T04:50:44;12.23;;;4.20;;
39502;SDS011;26970;49.900;10.774;2023-05-28T04:53:10;10.45;;;4.50;;
39502;SDS011;26970;49.900;10.774;2023-05-28T04:55:36;8.23;;;4.20;;
39502;SDS011;26970;49.900;10.774;2023-05-28T04:58:01;10.55;;;4.18;;
39502;SDS011;26970;49.900;10.774;2023-05-28T05:00:27;9.02;;;4.75;;
39502;SDS011;26970;49.900;10.774;2023-05-28T05:02:53;9.77;;;4.22;;
39502;SDS011;26970;49.900;10.774;2023-05-28T05:05:19;10.35;;;4.20;;
39502;SDS011;26970;49.900;10.774;2023-05-28T05:07:45;14.25;;;5.15;;
39502;SDS011;26970;49.900;10.774;2023-05-28T05:10:11;11.50;;;4.55;;
39502;SDS011;26970;49.900;10.774;2023-05-28T05:12:38;10.80;;;5.03;;
39502;SDS011;26970;49.900;10.774;2023-05-28T05:15:04;11.48;;;4.82;;
39502;SDS011;26970;49.900;10.774;2023-05-28T05:17:32;8.45;;;4.60;;
39502;SDS011;26970;49.900;10.774;2023-05-28T05:19:59;9.02;;;4.10;;
39502;SDS011;26970;49.900;10.774;2023-05-28T05:22:26;10.38;;;4.82;;
39502;SDS011;26970;49.900;10.774;2023-05-28T05:24:52;8.18;;;4.35;;
39502;SDS011;26970;49.900;10.774;2023-05-28T05:27:17;8.80;;;4.43;;
39502;SDS011;26970;49.900;10.774;2023-05-28T05:29:43;10.40;;;4.15;;
39502;SDS011;26970;49.900;10.774;2023-05-28T05:32:09;10.15;;;4.65;;
39502;SDS011;26970;49.900;10.774;2023-05-28T05:34:35;10.45;;;3.95;;
39502;SDS011;26970;49.900;10.774;2023-05-28T05:37:00;6.65;;;3.72;;
39502;SDS011;26970;49.900;10.774;2023-05-28T05:39:26;9.90;;;4.20;;
39502;SDS011;26970;49.900;10.774;2023-05-28T05:41:52;8.52;;;4.30;;
39502;SDS011;26970;49.900;10.774;2023-05-28T05:44:18;8.30;;;3.88;;
39502;SDS011;26970;49.900;10.774;2023-05-28T05:46:43;8.13;;;4.00;;
39502;SDS011;26970;49.900;10.774;2023-05-28T05:49:09;9.73;;;4.45;;
39502;SDS011;26970;49.900;10.774;2023-05-28T05:51:35;10.23;;;4.35;;
39502;SDS011;26970;49.900;10.774;2023-05-28T05:54:01;9.55;;;4.03;;
39502;SDS011;26970;49.900;10.774;2023-05-28T05:56:27;11.57;;;4.15;;
39502;SDS011;26970;49.900;10.774;2023-05-28T05:58:53;13.55;;;5.25;;
39502;SDS011;26970;49.900;10.774;2023-05-28T06:01:20;10.65;;;4.75;;
39502;SDS011;26970;49.900;10.774;2023-05-28T06:03:46;10.80;;;4.45;;
39502;SDS011;26970;49.900;10.774;2023-05-28T06:06:12;10.63;;;5.32;;
39502;SDS011;26970;49.900;10.774;2023-05-28T06:08:38;8.48;;;4.65;;
39502;SDS011;26970;49.900;10.774;2023-05-28T06:11:04;8.85;;;4.22;;
39502;SDS011;26970;49.900;10.774;2023-05-28T06:13:30;10.02;;;4.72;;
39502;SDS011;26970;49.900;10.774;2023-05-28T06:15:56;9.18;;;4.60;;
39502;SDS011;26970;49.900;10.774;2023-05-28T06:18:22;12.25;;;4.78;;
39502;SDS011;26970;49.900;10.774;2023-05-28T06:20:48;10.93;;;4.63;;
39502;SDS011;26970;49.900;10.774;2023-05-28T06:23:14;9.45;;;4.28;;
39502;SDS011;26970;49.900;10.774;2023-05-28T06:25:40;10.10;;;4.50;;
39502;SDS011;26970;49.900;10.774;2023-05-28T06:28:06;10.43;;;4.45;;
39502;SDS011;26970;49.900;10.774;2023-05-28T06:30:32;12.18;;;5.55;;
39502;SDS011;26970;49.900;10.774;2023-05-28T06:32:58;12.45;;;4.40;;
39502;SDS011;26970;49.900;10.774;2023-05-28T06:35:23;8.15;;;3.90;;
39502;SDS011;26970;49.900;10.774;2023-05-28T06:37:49;15.98;;;6.53;;
39502;SDS011;26970;49.900;10.774;2023-05-28T06:40:15;8.85;;;4.35;;
39502;SDS011;26970;49.900;10.774;2023-05-28T06:42:40;9.35;;;4.40;;
39502;SDS011;26970;49.900;10.774;2023-05-28T06:45:06;11.43;;;4.55;;
39502;SDS011;26970;49.900;10.774;2023-05-28T06:47:33;10.23;;;4.60;;
39502;SDS011;26970;49.900;10.774;2023-05-28T06:49:58;11.10;;;4.47;;
39502;SDS011;26970;49.900;10.774;2023-05-28T06:52:24;11.65;;;4.80;;
39502;SDS011;26970;49.900;10.774;2023-05-28T06:54:50;10.13;;;4.80;;
39502;SDS011;26970;49.900;10.774;2023-05-28T06:57:16;13.23;;;5.18;;
39502;SDS011;26970;49.900;10.774;2023-05-28T06:59:42;9.85;;;4.40;;
39502;SDS011;26970;49.900;10.774;2023-05-28T07:02:07;9.32;;;4.85;;
39502;SDS011;26970;49.900;10.774;2023-05-28T07:04:33;12.25;;;4.75;;
39502;SDS011;26970;49.900;10.774;2023-05-28T07:06:58;11.00;;;5.10;;
39502;SDS011;26970;49.900;10.774;2023-05-28T07:09:24;10.73;;;4.45;;
39502;SDS011;26970;49.900;10.774;2023-05-28T07:11:50;12.48;;;5.32;;
39502;SDS011;26970;49.900;10.774;2023-05-28T07:14:16;8.35;;;4.78;;
39502;SDS011;26970;49.900;10.774;2023-05-28T07:16:41;9.75;;;4.82;;
39502;SDS011;26970;49.900;10.774;2023-05-28T07:19:07;9.95;;;4.63;;
39502;SDS011;26970;49.900;10.774;2023-05-28T07:21:33;14.70;;;4.72;;
39502;SDS011;26970;49.900;10.774;2023-05-28T07:23:59;9.38;;;4.57;;
39502;SDS011;26970;49.900;10.774;2023-05-28T07:26:25;9.25;;;4.40;;
39502;SDS011;26970;49.900;10.774;2023-05-28T07:28:51;11.65;;;4.78;;
39502;SDS011;26970;49.900;10.774;2023-05-28T07:31:17;12.13;;;4.20;;
39502;SDS011;26970;49.900;10.774;2023-05-28T07:33:42;11.88;;;4.65;;
39502;SDS011;26970;49.900;10.774;2023-05-28T07:36:08;8.60;;;4.20;;
39502;SDS011;26970;49.900;10.774;2023-05-28T07:38:34;8.95;;;3.90;;
39502;SDS011;26970;49.900;10.774;2023-05-28T07:41:00;10.23;;;4.50;;
39502;SDS011;26970;49.900;10.774;2023-05-28T07:43:26;8.82;;;4.70;;
39502;SDS011;26970;49.900;10.774;2023-05-28T07:45:51;13.70;;;4.82;;
39502;SDS011;26970;49.900;10.774;2023-05-28T07:48:17;10.95;;;4.38;;
39502;SDS011;26970;49.900;10.774;2023-05-28T07:50:42;11.73;;;4.55;;
39502;SDS011;26970;49.900;10.774;2023-05-28T07:53:08;10.75;;;4.07;;
39502;SDS011;26970;49.900;10.774;2023-05-28T07:55:34;9.52;;;4.10;;
39502;SDS011;26970;49.900;10.774;2023-05-28T07:57:59;9.43;;;4.45;;
39502;SDS011;26970;49.900;10.774;2023-05-28T08:00:25;10.65;;;4.50;;
39502;SDS011;26970;49.900;10.774;2023-05-28T08:02:52;8.82;;;4.47;;
39502;SDS011;26970;49.900;10.774;2023-05-28T08:05:17;12.30;;;4.60;;
39502;SDS011;26970;49.900;10.774;2023-05-28T08:07:43;14.13;;;4.78;;
39502;SDS011;26970;49.900;10.774;2023-05-28T08:10:10;12.95;;;4.55;;
39502;SDS011;26970;49.900;10.774;2023-05-28T08:12:36;12.73;;;4.85;;
39502;SDS011;26970;49.900;10.774;2023-05-28T08:15:02;10.75;;;4.15;;
39502;SDS011;26970;49.900;10.774;2023-05-28T08:17:29;9.60;;;4.50;;
39502;SDS011;26970;49.900;10.774;2023-05-28T08:19:59;10.05;;;4.28;;
39502;SDS011;26970;49.900;10.774;2023-05-28T08:22:24;11.18;;;4.50;;
39502;SDS011;26970;49.900;10.774;2023-05-28T08:24:50;11.15;;;4.38;;
39502;SDS011;26970;49.900;10.774;2023-05-28T08:27:16;10.18;;;4.10;;
39502;SDS011;26970;49.900;10.774;2023-05-28T08:29:41;12.05;;;4.68;;
39502;SDS011;26970;49.900;10.774;2023-05-28T08:32:07;10.70;;;4.40;;
39502;SDS011;26970;49.900;10.774;2023-05-28T08:34:32;9.40;;;4.13;;
39502;SDS011;26970;49.900;10.774;2023-05-28T08:37:01;12.68;;;4.65;;
39502;SDS011;26970;49.900;10.774;2023-05-28T08:39:28;9.43;;;4.07;;
39502;SDS011;26970;49.900;10.774;2023-05-28T08:41:53;9.98;;;4.43;;
39502;SDS011;26970;49.900;10.774;2023-05-28T08:44:19;10.65;;;4.22;;
39502;SDS011;26970;49.900;10.774;2023-05-28T08:46:45;11.40;;;4.05;;
39502;SDS011;26970;49.900;10.774;2023-05-28T08:49:11;9.93;;;4.43;;
39502;SDS011;26970;49.900;10.774;2023-05-28T08:51:39;7.28;;;4.00;;
39502;SDS011;26970;49.900;10.774;2023-05-28T08:54:07;11.05;;;4.10;;
39502;SDS011;26970;49.900;10.774;2023-05-28T08:56:33;7.70;;;3.78;;
39502;SDS011;26970;49.900;10.774;2023-05-28T08:58:59;11.98;;;4.80;;
39502;SDS011;26970;49.900;10.774;2023-05-28T09:01:26;11.15;;;4.10;;
39502;SDS011;26970;49.900;10.774;2023-05-28T09:03:52;9.68;;;4.22;;
39502;SDS011;26970;49.900;10.774;2023-05-28T09:06:18;7.65;;;4.00;;
39502;SDS011;26970;49.900;10.774;2023-05-28T09:08:45;10.15;;;3.90;;
39502;SDS011;26970;49.900;10.774;2023-05-28T09:11:11;9.00;;;4.25;;
39502;SDS011;26970;49.900;10.774;2023-05-28T09:13:43;8.60;;;3.80;;
39502;SDS011;26970;49.900;10.774;2023-05-28T09:16:10;14.10;;;4.95;;
39502;SDS011;26970;49.900;10.774;2023-05-28T09:18:36;9.15;;;4.88;;
39502;SDS011;26970;49.900;10.774;2023-05-28T09:21:11;8.40;;;3.78;;
39502;SDS011;26970;49.900;10.774;2023-05-28T09:23:37;8.88;;;4.18;;
39502;SDS011;26970;49.900;10.774;2023-05-28T09:26:07;12.73;;;4.35;;
39502;SDS011;26970;49.900;10.774;2023-05-28T09:28:34;8.25;;;4.47;;
39502;SDS011;26970;49.900;10.774;2023-05-28T09:31:03;11.98;;;4.40;;
39502;SDS011;26970;49.900;10.774;2023-05-28T09:33:30;14.20;;;4.53;;
39502;SDS011;26970;49.900;10.774;2023-05-28T09:36:02;9.85;;;4.20;;
39502;SDS011;26970;49.900;10.774;2023-05-28T09:38:37;7.45;;;4.15;;
39502;SDS011;26970;49.900;10.774;2023-05-28T09:41:04;11.05;;;4.13;;
39502;SDS011;26970;49.900;10.774;2023-05-28T09:43:30;13.27;;;4.50;;
39502;SDS011;26970;49.900;10.774;2023-05-28T09:46:06;6.50;;;3.60;;
39502;SDS011;26970;49.900;10.774;2023-05-28T09:48:32;11.02;;;4.00;;
39502;SDS011;26970;49.900;10.774;2023-05-28T09:50:58;9.02;;;3.85;;
39502;SDS011;26970;49.900;10.774;2023-05-28T09:53:27;9.57;;;3.83;;
39502;SDS011;26970;49.900;10.774;2023-05-28T09:55:55;7.78;;;3.83;;
39502;SDS011;26970;49.900;10.774;2023-05-28T09:58:24;11.85;;;4.22;;
39502;SDS011;26970;49.900;10.774;2023-05-28T10:00:56;9.07;;;4.20;;
39502;SDS011;26970;49.900;10.774;2023-05-28T10:03:33;9.07;;;4.00;;
39502;SDS011;26970;49.900;10.774;2023-05-28T10:06:13;9.57;;;3.75;;
39502;SDS011;26970;49.900;10.774;2023-05-28T10:08:41;8.73;;;3.75;;
39502;SDS011;26970;49.900;10.774;2023-05-28T10:11:12;10.23;;;4.50;;
39502;SDS011;26970;49.900;10.774;2023-05-28T10:13:40;10.30;;;4.05;;
39502;SDS011;26970;49.900;10.774;2023-05-28T10:16:07;12.88;;;4.15;;
39502;SDS011;26970;49.900;10.774;2023-05-28T10:18:34;11.45;;;4.43;;
39502;SDS011;26970;49.900;10.774;2023-05-28T10:21:00;11.73;;;3.72;;
39502;SDS011;26970;49.900;10.774;2023-05-28T10:23:26;8.63;;;4.07;;
39502;SDS011;26970;49.900;10.774;2023-05-28T10:25:53;8.75;;;3.95;;
39502;SDS011;26970;49.900;10.774;2023-05-28T10:28:20;8.57;;;4.15;;
39502;SDS011;26970;49.900;10.774;2023-05-28T10:30:46;7.70;;;3.80;;
39502;SDS011;26970;49.900;10.774;2023-05-28T10:35:54;11.23;;;4.63;;
39502;SDS011;26970;49.900;10.774;2023-05-28T10:38:22;12.50;;;4.78;;
39502;SDS011;26970;49.900;10.774;2023-05-28T10:40:48;12.27;;;4.00;;
39502;SDS011;26970;49.900;10.774;2023-05-28T10:46:12;10.18;;;4.68;;
39502;SDS011;26970;49.900;10.774;2023-05-28T10:48:40;8.80;;;3.75;;
39502;SDS011;26970;49.900;10.774;2023-05-28T10:51:06;7.05;;;3.53;;
39502;SDS011;26970;49.900;10.774;2023-05-28T10:53:32;9.77;;;4.10;;
39502;SDS011;26970;49.900;10.774;2023-05-28T10:55:58;6.85;;;3.72;;
39502;SDS011;26970;49.900;10.774;2023-05-28T11:01:37;13.35;;;4.50;;
39502;SDS011;26970;49.900;10.774;2023-05-28T11:03:51;8.70;;;4.13;;
39502;SDS011;26970;49.900;10.774;2023-05-28T11:06:20;10.63;;;4.00;;
39502;SDS011;26970;49.900;10.774;2023-05-28T11:08:46;9.85;;;4.20;;
39502;SDS011;26970;49.900;10.774;2023-05-28T11:11:17;9.68;;;3.55;;
39502;SDS011;26970;49.900;10.774;2023-05-28T11:13:44;9.02;;;3.72;;
39502;SDS011;26970;49.900;10.774;2023-05-28T11:16:11;10.20;;;4.07;;
39502;SDS011;26970;49.900;10.774;2023-05-28T11:18:39;7.35;;;3.97;;
39502;SDS011;26970;49.900;10.774;2023-05-28T11:21:24;6.15;;;3.58;;
39502;SDS011;26970;49.900;10.774;2023-05-28T11:24:02;6.00;;;3.58;;
39502;SDS011;26970;49.900;10.774;2023-05-28T11:26:28;9.90;;;3.83;;
39502;SDS011;26970;49.900;10.774;2023-05-28T11:28:55;8.77;;;3.78;;
39502;SDS011;26970;49.900;10.774;2023-05-28T11:31:21;9.18;;;3.72;;
39502;SDS011;26970;49.900;10.774;2023-05-28T11:33:49;9.25;;;3.65;;
39502;SDS011;26970;49.900;10.774;2023-05-28T11:36:15;6.93;;;3.30;;
39502;SDS011;26970;49.900;10.774;2023-05-28T11:38:43;8.50;;;3.85;;
39502;SDS011;26970;49.900;10.774;2023-05-28T11:41:08;8.95;;;3.53;;
39502;SDS011;26970;49.900;10.774;2023-05-28T11:43:34;7.75;;;3.67;;
39502;SDS011;26970;49.900;10.774;2023-05-28T11:46:00;6.72;;;3.67;;
39502;SDS011;26970;49.900;10.774;2023-05-28T11:48:26;7.63;;;4.18;;
39502;SDS011;26970;49.900;10.774;2023-05-28T11:50:56;10.43;;;3.90;;
39502;SDS011;26970;49.900;10.774;2023-05-28T11:53:23;7.80;;;3.30;;
39502;SDS011;26970;49.900;10.774;2023-05-28T11:55:49;8.27;;;3.92;;
39502;SDS011;26970;49.900;10.774;2023-05-28T11:58:15;8.90;;;3.53;;
39502;SDS011;26970;49.900;10.774;2023-05-28T12:00:40;9.35;;;3.75;;
39502;SDS011;26970;49.900;10.774;2023-05-28T12:03:06;9.63;;;3.53;;
39502;SDS011;26970;49.900;10.774;2023-05-28T12:05:36;8.30;;;3.90;;
39502;SDS011;26970;49.900;10.774;2023-05-28T12:08:05;9.18;;;3.92;;
39502;SDS011;26970;49.900;10.774;2023-05-28T12:10:31;6.78;;;3.45;;
39502;SDS011;26970;49.900;10.774;2023-05-28T12:12:56;7.68;;;3.65;;
39502;SDS011;26970;49.900;10.774;2023-05-28T12:15:23;8.20;;;3.63;;
39502;SDS011;26970;49.900;10.774;2023-05-28T12:30:35;7.80;;;3.60;;
39502;SDS011;26970;49.900;10.774;2023-05-28T12:33:01;9.23;;;3.58;;
39502;SDS011;26970;49.900;10.774;2023-05-28T12:35:27;8.20;;;3.45;;
39502;SDS011;26970;49.900;10.774;2023-05-28T12:37:52;6.55;;;3.67;;
39502;SDS011;26970;49.900;10.774;2023-05-28T12:40:18;7.93;;;3.83;;
39502;SDS011;26970;49.900;10.774;2023-05-28T12:42:44;9.77;;;3.90;;
39502;SDS011;26970;49.900;10.774;2023-05-28T12:45:09;7.25;;;3.40;;
39502;SDS011;26970;49.900;10.774;2023-05-28T12:47:35;8.45;;;3.35;;
39502;SDS011;26970;49.900;10.774;2023-05-28T12:50:00;7.53;;;3.60;;
39502;SDS011;26970;49.900;10.774;2023-05-28T12:52:26;7.60;;;3.55;;
39502;SDS011;26970;49.900;10.774;2023-05-28T12:54:52;8.55;;;4.32;;
39502;SDS011;26970;49.900;10.774;2023-05-28T12:57:17;6.78;;;3.38;;
39502;SDS011;26970;49.900;10.774;2023-05-28T12:59:43;9.48;;;3.58;;
39502;SDS011;26970;49.900;10.774;2023-05-28T13:02:08;7.97;;;3.47;;
39502;SDS011;26970;49.900;10.774;2023-05-28T13:04:34;8.52;;;3.65;;
39502;SDS011;26970;49.900;10.774;2023-05-28T13:07:00;8.48;;;3.67;;
39502;SDS011;26970;49.900;10.774;2023-05-28T13:09:26;6.40;;;3.58;;
39502;SDS011;26970;49.900;10.774;2023-05-28T13:11:51;8.07;;;3.08;;
39502;SDS011;26970;49.900;10.774;2023-05-28T13:14:17;5.43;;;3.33;;
39502;SDS011;26970;49.900;10.774;2023-05-28T13:16:42;7.15;;;3.58;;
39502;SDS011;26970;49.900;10.774;2023-05-28T13:19:08;6.78;;;3.28;;
39502;SDS011;26970;49.900;10.774;2023-05-28T13:21:34;6.50;;;3.58;;
39502;SDS011;26970;49.900;10.774;2023-05-28T13:24:02;8.55;;;3.47;;
39502;SDS011;26970;49.900;10.774;2023-05-28T13:26:29;7.50;;;4.03;;
39502;SDS011;26970;49.900;10.774;2023-05-28T13:28:56;9.40;;;3.53;;
39502;SDS011;26970;49.900;10.774;2023-05-28T13:31:22;7.50;;;3.63;;
39502;SDS011;26970;49.900;10.774;2023-05-28T13:33:48;7.10;;;3.78;;
39502;SDS011;26970;49.900;10.774;2023-05-28T13:36:13;8.90;;;4.55;;
39502;SDS011;26970;49.900;10.774;2023-05-28T13:38:42;7.32;;;3.00;;
39502;SDS011;26970;49.900;10.774;2023-05-28T13:41:08;6.50;;;3.22;;
39502;SDS011;26970;49.900;10.774;2023-05-28T13:43:35;7.70;;;3.83;;
39502;SDS011;26970;49.900;10.774;2023-05-28T13:46:02;10.85;;;4.20;;
39502;SDS011;26970;49.900;10.774;2023-05-28T13:48:31;8.65;;;3.67;;
39502;SDS011;26970;49.900;10.774;2023-05-28T13:50:58;7.22;;;3.20;;
39502;SDS011;26970;49.900;10.774;2023-05-28T13:53:25;8.88;;;3.30;;
39502;SDS011;26970;49.900;10.774;2023-05-28T13:55:52;6.22;;;3.38;;
39502;SDS011;26970;49.900;10.774;2023-05-28T13:58:17;6.95;;;3.95;;
39502;SDS011;26970;49.900;10.774;2023-05-28T14:00:43;10.60;;;3.83;;
39502;SDS011;26970;49.900;10.774;2023-05-28T14:03:08;8.80;;;3.53;;
39502;SDS011;26970;49.900;10.774;2023-05-28T14:05:38;9.57;;;3.72;;
39502;SDS011;26970;49.900;10.774;2023-05-28T14:08:04;7.28;;;3.40;;
39502;SDS011;26970;49.900;10.774;2023-05-28T14:10:30;6.75;;;3.58;;
39502;SDS011;26970;49.900;10.774;2023-05-28T14:12:56;6.68;;;3.17;;
39502;SDS011;26970;49.900;10.774;2023-05-28T14:15:22;6.53;;;3.85;;
39502;SDS011;26970;49.900;10.774;2023-05-28T14:17:47;7.15;;;3.22;;
39502;SDS011;26970;49.900;10.774;2023-05-28T14:20:13;7.20;;;3.20;;
39502;SDS011;26970;49.900;10.774;2023-05-28T14:22:38;7.78;;;3.17;;
39502;SDS011;26970;49.900;10.774;2023-05-28T14:25:04;5.63;;;2.95;;
39502;SDS011;26970;49.900;10.774;2023-05-28T14:27:30;7.05;;;3.25;;
39502;SDS011;26970;49.900;10.774;2023-05-28T14:29:56;6.78;;;3.00;;
39502;SDS011;26970;49.900;10.774;2023-05-28T14:32:21;6.57;;;3.40;;
39502;SDS011;26970;49.900;10.774;2023-05-28T14:34:47;5.88;;;2.92;;
39502;SDS011;26970;49.900;10.774;2023-05-28T14:37:13;6.13;;;2.85;;
39502;SDS011;26970;49.900;10.774;2023-05-28T14:39:39;5.72;;;3.10;;
39502;SDS011;26970;49.900;10.774;2023-05-28T14:42:04;6.75;;;3.13;;
39502;SDS011;26970;49.900;10.774;2023-05-28T14:44:30;5.72;;;2.83;;